Time;durP1;ratioP1;P1;durP2;ratioP2;P2;SDS_P1;SDS_P2;PMS_P1;PMS_P2;Temp;Humidity;BMP_temperature;BMP_pressure;BME280_temperature;BME280_humidity;BME280_pressure;Samples;Min_cycle;Max_cycle;Signal;HPM_P1;HPM_P2
2023/05/29 00:00:13;;;;;;;21.20;10.10;;;;;;;10.91;64.82;101003.25;104726;1283;99139;-80
2023/05/29 00:03:18;;;;;;;21.40;8.50;;;;;;;10.86;65.09;101000.54;105331;1269;98015;-79
2023/05/29 00:06:05;;;;;;;24.20;9.50;;;;;;;10.82;65.32;100998.86;104788;1270;98423;-81
2023/05/29 00:08:51;;;;;;;20.90;8.60;;;;;;;10.78;65.53;100993.22;105673;1267;101361;-82
2023/05/29 00:11:36;;;;;;;20.80;7.40;;;;;;;10.75;65.18;100991.52;105578;1269;100349;-81
2023/05/29 00:14:23;;;;;;;15.70;6.80;;;;;;;10.70;65.50;100993.88;105758;1267;97904;-81
2023/05/29 00:17:09;;;;;;;15.00;7.00;;;;;;;10.65;65.77;100991.48;105617;1269;97900;-80
2023/05/29 00:19:54;;;;;;;8.80;5.40;;;;;;;10.59;66.14;100992.29;105523;1269;98406;-79
2023/05/29 00:22:40;;;;;;;9.20;5.70;;;;;;;10.53;66.38;100992.11;104756;1269;102144;-79
2023/05/29 00:25:25;;;;;;;13.70;5.80;;;;;;;10.49;66.52;100987.79;104844;1270;99053;-78
2023/05/29 00:28:12;;;;;;;12.80;5.50;;;;;;;10.46;66.30;100986.04;104825;1270;98958;-78
2023/05/29 00:30:57;;;;;;;9.80;5.20;;;;;;;10.42;66.30;100986.10;104745;1270;98082;-77
2023/05/29 00:33:43;;;;;;;11.00;5.30;;;;;;;10.39;66.35;100985.17;104700;1270;98056;-76
2023/05/29 00:36:29;;;;;;;11.10;6.80;;;;;;;10.36;66.75;100986.88;105006;1270;102643;-80
2023/05/29 00:39:15;;;;;;;12.80;5.40;;;;;;;10.32;67.13;100987.34;106165;1266;99200;-80
2023/05/29 00:42:01;;;;;;;17.20;6.30;;;;;;;10.29;67.33;100990.13;104855;1270;98928;-79
2023/05/29 00:44:46;;;;;;;10.60;6.00;;;;;;;10.27;67.76;100991.41;104942;1267;97999;-79
2023/05/29 00:47:32;;;;;;;9.60;5.30;;;;;;;10.25;67.56;100993.67;104852;1270;98507;-79
2023/05/29 00:50:21;;;;;;;9.30;4.80;;;;;;;10.19;67.54;100996.06;104751;1267;102168;-78
2023/05/29 00:53:07;;;;;;;10.10;4.80;;;;;;;10.14;67.36;100994.02;104898;1270;99283;-80
2023/05/29 00:55:53;;;;;;;11.40;4.50;;;;;;;10.08;67.28;100994.65;104852;1265;98175;-78
2023/05/29 00:58:38;;;;;;;11.90;5.10;;;;;;;10.03;67.25;100994.69;105058;1265;97880;-79
2023/05/29 01:01:24;;;;;;;11.20;4.10;;;;;;;9.97;67.22;100992.02;105069;1267;96219;-79
2023/05/29 01:04:12;;;;;;;10.10;4.40;;;;;;;9.93;67.67;100992.92;105039;1267;101362;-77
2023/05/29 01:06:57;;;;;;;9.00;4.90;;;;;;;9.90;67.71;100994.71;104795;1270;100290;-78
2023/05/29 01:09:43;;;;;;;9.20;5.00;;;;;;;9.87;67.80;100991.58;104791;1270;97967;-76
2023/05/29 01:12:58;;;;;;;6.30;4.00;;;;;;;9.80;67.82;100990.66;105093;1269;97936;-77
2023/05/29 01:16:03;;;;;;;8.40;4.50;;;;;;;9.71;67.97;100989.55;104827;1270;98440;-78
2023/05/29 01:19:08;;;;;;;9.70;4.20;;;;;;;9.65;67.86;100991.88;104786;1270;101345;-77
2023/05/29 01:22:22;;;;;;;5.90;4.30;;;;;;;9.63;67.87;100991.58;104823;1267;100237;-78
2023/05/29 01:25:25;;;;;;;11.30;4.50;;;;;;;9.61;67.78;100989.15;104809;1267;97979;-78
2023/05/29 01:28:12;;;;;;;7.20;4.00;;;;;;;9.56;67.75;100986.36;104823;1265;97984;-80
2023/05/29 01:31:00;;;;;;;7.30;4.30;;;;;;;9.48;67.82;100985.93;105379;1267;99859;-78
2023/05/29 01:33:54;;;;;;;8.40;3.80;;;;;;;9.41;67.49;100983.98;104657;1269;102688;-79
2023/05/29 01:36:39;;;;;;;5.80;3.70;;;;;;;9.32;67.59;100981.27;105114;1267;99103;-80
2023/05/29 01:39:26;;;;;;;5.70;3.50;;;;;;;9.23;67.55;100985.50;104924;1265;98047;-80
2023/05/29 01:42:12;;;;;;;7.80;3.70;;;;;;;9.16;67.69;100985.64;105082;1265;98046;-80
2023/05/29 01:44:59;;;;;;;6.50;3.60;;;;;;;9.10;67.69;100987.38;105061;1269;98048;-78
2023/05/29 01:47:45;;;;;;;5.90;3.80;;;;;;;9.07;67.65;100988.08;105129;1267;101403;-80
2023/05/29 01:50:31;;;;;;;7.60;4.40;;;;;;;9.03;67.87;100991.15;104909;1267;100352;-78
2023/05/29 01:53:16;;;;;;;11.20;5.40;;;;;;;8.99;68.43;100984.81;104828;1267;98971;-78
2023/05/29 01:56:02;;;;;;;8.20;4.60;;;;;;;8.96;68.37;100983.27;104586;1270;97957;-78
2023/05/29 01:58:50;;;;;;;7.00;4.20;;;;;;;8.90;68.16;100981.60;104710;1267;98578;-79
2023/05/29 02:01:39;;;;;;;9.60;4.60;;;;;;;8.85;68.43;100983.04;105164;1270;101317;-80
2023/05/29 02:04:25;;;;;;;10.00;5.70;;;;;;;8.82;68.58;100983.00;105313;1269;99101;-79
2023/05/29 02:07:12;;;;;;;13.30;6.70;;;;;;;8.80;68.66;100980.52;105600;1269;99209;-80
2023/05/29 02:09:58;;;;;;;11.20;5.70;;;;;;;8.80;68.74;100977.52;105605;1267;97994;-77
2023/05/29 02:12:44;;;;;;;14.20;5.90;;;;;;;8.78;68.84;100974.16;104811;1264;97992;-78
2023/05/29 02:15:29;;;;;;;20.90;7.80;;;;;;;8.78;68.99;100977.19;104784;1265;101338;-76
2023/05/29 02:18:17;;;;;;;16.60;8.00;;;;;;;8.80;69.07;100978.36;104769;1265;100527;-79
2023/05/29 02:21:03;;;;;;;20.40;8.40;;;;;;;8.81;69.13;100975.65;104877;1270;98985;-79
2023/05/29 02:23:49;;;;;;;20.10;8.70;;;;;;;8.78;69.42;100977.02;104649;1270;98567;-78
2023/05/29 02:26:38;;;;;;;19.20;8.90;;;;;;;8.75;69.54;100976.12;104797;1270;98436;-79
2023/05/29 02:29:24;;;;;;;17.80;8.00;;;;;;;8.71;69.80;100975.78;104782;1269;101339;-77
2023/05/29 02:32:13;;;;;;;14.40;7.10;;;;;;;8.67;69.69;100973.04;105381;1269;100208;-79
2023/05/29 02:34:58;;;;;;;13.60;6.00;;;;;;;8.64;69.72;100968.26;104726;1270;98927;-78
2023/05/29 02:37:44;;;;;;;10.40;4.90;;;;;;;8.60;69.82;100965.84;104590;1265;98052;-78
2023/05/29 02:40:30;;;;;;;6.70;4.00;;;;;;;8.55;69.93;100961.17;105070;1270;98958;-79
2023/05/29 02:43:17;;;;;;;7.40;3.90;;;;;;;8.51;70.24;100958.41;105525;1267;102639;-78
2023/05/29 02:46:03;;;;;;;5.50;3.80;;;;;;;8.49;70.55;100959.48;104588;1267;99167;-78
2023/05/29 02:48:48;;;;;;;13.40;3.90;;;;;;;8.48;70.71;100959.13;104613;1266;98384;-79
2023/05/29 02:51:33;;;;;;;8.80;4.20;;;;;;;8.44;70.76;100958.05;104843;1264;98000;-81
2023/05/29 02:54:19;;;;;;;9.80;3.80;;;;;;;8.42;70.57;100956.91;104931;1265;98017;-79
2023/05/29 02:57:06;;;;;;;4.20;3.40;;;;;;;8.38;70.45;100960.11;104989;1270;101483;-78
2023/05/29 02:59:52;;;;;;;9.00;3.60;;;;;;;8.33;70.33;100964.94;104709;1269;99235;-79
2023/05/29 03:02:37;;;;;;;9.80;3.30;;;;;;;8.30;70.61;100962.99;104734;1265;98031;-78
2023/05/29 03:05:23;;;;;;;7.20;3.60;;;;;;;8.30;70.66;100962.16;104724;1267;97999;-78
2023/05/29 03:08:10;;;;;;;6.30;3.80;;;;;;;8.31;70.72;100960.45;104718;1270;98509;-80
2023/05/29 03:10:56;;;;;;;9.00;3.20;;;;;;;8.31;71.17;100961.59;105631;1267;101505;-81
2023/05/29 03:13:42;;;;;;;4.80;3.30;;;;;;;8.31;71.33;100963.97;105175;1270;100096;-79
2023/05/29 03:16:29;;;;;;;5.70;3.80;;;;;;;8.28;71.18;100965.33;105735;1264;97967;-79
2023/05/29 03:19:14;;;;;;;8.30;3.20;;;;;;;8.25;71.37;100967.95;105061;1269;97980;-81
2023/05/29 03:22:00;;;;;;;10.30;3.60;;;;;;;8.22;71.32;100970.38;105581;1265;97939;-79
2023/05/29 03:24:45;;;;;;;11.60;4.10;;;;;;;8.18;71.10;100974.05;104744;1270;101384;-77
2023/05/29 03:27:32;;;;;;;5.40;3.50;;;;;;;8.13;71.27;100978.09;104652;1270;99692;-78
2023/05/29 03:30:24;;;;;;;5.50;3.10;;;;;;;8.13;71.87;100979.00;105003;1268;98329;-79
2023/05/29 03:33:10;;;;;;;4.80;2.80;;;;;;;8.17;72.33;100977.73;105049;1270;97905;-79
2023/05/29 03:36:12;;;;;;;4.40;3.40;;;;;;;8.21;72.75;100979.39;105008;1267;99021;-80
2023/05/29 03:38:58;;;;;;;7.10;3.50;;;;;;;8.25;73.06;100982.26;104823;1267;101353;-79
2023/05/29 03:41:44;;;;;;;6.40;3.30;;;;;;;8.28;72.98;100986.48;104909;1269;99223;-80
2023/05/29 03:44:30;;;;;;;6.70;2.80;;;;;;;8.32;72.88;100988.88;105008;1265;98979;-79
2023/05/29 03:47:15;;;;;;;6.10;3.30;;;;;;;8.39;73.25;100986.23;104882;1265;97874;-78
2023/05/29 03:50:01;;;;;;;5.20;3.40;;;;;;;8.47;73.59;100984.59;105669;1266;98063;-80
2023/05/29 03:52:49;;;;;;;5.60;4.00;;;;;;;8.59;73.75;100987.35;105631;1265;102600;-78
2023/05/29 03:55:35;;;;;;;7.20;3.10;;;;;;;8.69;73.79;100989.77;104841;1270;99138;-79
2023/05/29 03:58:21;;;;;;;7.10;3.70;;;;;;;8.78;74.12;100993.59;104796;1265;97964;-76
2023/05/29 04:01:09;;;;;;;5.20;3.50;;;;;;;8.86;74.53;100994.50;105450;1267;97974;-81
2023/05/29 04:03:55;;;;;;;6.30;4.00;;;;;;;8.93;74.50;100996.53;106126;1264;97909;-81
2023/05/29 04:06:41;;;;;;;5.50;3.40;;;;;;;9.00;74.67;100996.80;105817;1265;101311;-81
2023/05/29 04:09:26;;;;;;;6.60;3.40;;;;;;;9.10;74.85;100999.52;105726;1270;99095;-80
2023/05/29 04:12:13;;;;;;;7.30;4.20;;;;;;;9.19;74.94;101002.41;105774;1266;97990;-81
2023/05/29 04:14:59;;;;;;;5.90;3.80;;;;;;;9.29;75.11;101003.38;105740;1269;97913;-81
2023/05/29 04:17:44;;;;;;;6.60;4.10;;;;;;;9.42;75.17;101006.30;105773;1269;97966;-82
2023/05/29 04:20:30;;;;;;;7.40;4.30;;;;;;;9.54;75.05;101008.80;105625;1265;101419;-82
2023/05/29 04:23:16;;;;;;;6.40;4.60;;;;;;;9.67;75.38;101009.33;105666;1268;100356;-81
2023/05/29 04:26:02;;;;;;;7.70;4.20;;;;;;;9.79;75.44;101011.50;105565;1267;99014;-79
2023/05/29 04:28:49;;;;;;;7.80;5.00;;;;;;;9.92;75.47;101011.27;105612;1265;97988;-80
2023/05/29 04:31:36;;;;;;;10.80;5.80;;;;;;;10.05;75.46;101008.34;105629;1269;98419;-80
2023/05/29 04:34:22;;;;;;;11.70;6.30;;;;;;;10.18;75.56;101006.73;105829;1266;101417;-80
2023/05/29 04:37:08;;;;;;;7.60;5.00;;;;;;;10.34;75.94;101010.48;104777;1270;100256;-79
2023/05/29 04:39:53;;;;;;;6.10;4.40;;;;;;;10.53;77.06;101009.27;105587;1265;98015;-80
2023/05/29 04:42:45;;;;;;;9.00;4.80;;;;;;;10.67;77.97;101006.37;105634;1267;97971;-79
2023/05/29 04:45:30;;;;;;;14.40;4.40;;;;;;;10.78;77.81;100998.31;104780;1268;99690;-78
2023/05/29 04:48:16;;;;;;;9.40;4.90;;;;;;;10.94;77.71;101001.42;105066;1265;102660;-80
2023/05/29 04:51:02;;;;;;;9.50;5.80;;;;;;;11.11;77.57;101002.13;104702;1269;99564;-77
2023/05/29 04:53:51;;;;;;;9.30;5.50;;;;;;;11.21;77.61;100999.61;104604;1270;99641;-78
2023/05/29 04:56:39;;;;;;;11.40;5.60;;;;;;;11.31;77.51;101000.98;104807;1270;98033;-77
2023/05/29 04:59:26;;;;;;;10.20;5.90;;;;;;;11.43;77.30;100998.27;105368;1265;99080;-77
2023/05/29 05:02:11;;;;;;;10.30;6.00;;;;;;;11.56;77.16;101000.42;104717;1268;102631;-78
2023/05/29 05:04:57;;;;;;;12.20;6.20;;;;;;;11.70;77.02;101002.89;105858;1268;100334;-79
2023/05/29 05:07:43;;;;;;;10.40;6.00;;;;;;;11.84;76.97;100998.84;104982;1269;97885;-79
2023/05/29 05:10:29;;;;;;;10.20;6.60;;;;;;;11.99;76.98;100995.25;104847;1267;98228;-77
2023/05/29 05:13:15;;;;;;;8.60;5.70;;;;;;;12.13;76.63;100991.69;104722;1265;98420;-78
2023/05/29 05:16:01;;;;;;;8.80;5.90;;;;;;;12.28;76.34;100989.61;104635;1265;101463;-78
2023/05/29 05:18:47;;;;;;;8.40;5.90;;;;;;;12.43;75.96;100988.17;104738;1265;101221;-77
2023/05/29 05:21:33;;;;;;;14.20;5.00;;;;;;;12.56;75.50;100992.09;104720;1265;98052;-78
2023/05/29 05:24:18;;;;;;;11.70;5.00;;;;;;;12.68;75.13;100992.54;104853;1270;97954;-79
2023/05/29 05:27:05;;;;;;;11.80;4.90;;;;;;;12.81;74.70;100992.34;104668;1270;98601;-78
2023/05/29 05:29:50;;;;;;;10.30;4.60;;;;;;;12.92;74.68;100992.42;104966;1265;102646;-81
2023/05/29 05:32:36;;;;;;;10.50;4.60;;;;;;;13.05;74.54;100991.58;105610;1265;100466;-80
2023/05/29 05:35:24;;;;;;;7.20;4.40;;;;;;;13.18;74.16;100995.86;105803;1265;98467;-81
2023/05/29 05:38:11;;;;;;;6.00;3.70;;;;;;;13.31;73.33;100998.80;105053;1264;99279;-79
2023/05/29 05:40:57;;;;;;;6.80;4.00;;;;;;;13.46;73.36;100993.33;106208;1268;97847;-89
2023/05/29 05:43:46;;;;;;;6.90;3.70;;;;;;;13.64;72.88;100995.27;106265;1265;103530;-88
2023/05/29 05:46:36;;;;;;;9.40;3.80;;;;;;;13.82;72.14;100997.55;106138;1265;99114;-89
2023/05/29 05:49:22;;;;;;;6.70;3.20;;;;;;;14.00;71.32;100995.91;106235;1265;99041;-91
2023/05/29 05:52:08;;;;;;;7.90;3.60;;;;;;;14.18;70.53;100993.89;105835;1265;98015;-89
2023/05/29 05:54:54;;;;;;;7.90;2.60;;;;;;;14.36;69.31;100992.77;106302;1271;97872;-88
2023/05/29 05:57:40;;;;;;;5.80;2.70;;;;;;;14.51;67.99;100990.92;106194;1265;101284;-87
2023/05/29 06:00:27;;;;;;;5.80;3.60;;;;;;;14.68;67.15;100992.44;105912;1270;100328;-88
2023/05/29 06:03:16;;;;;;;12.70;2.80;;;;;;;14.83;65.86;100988.60;106018;1265;99256;-86
2023/05/29 06:06:16;;;;;;;4.20;2.10;;;;;;;14.98;65.36;100988.71;106037;1266;97936;-89
2023/05/29 06:09:04;;;;;;;6.90;3.30;;;;;;;15.14;65.06;100991.38;105915;1265;98593;-86
2023/05/29 06:11:49;;;;;;;6.00;2.60;;;;;;;15.29;64.28;100991.09;105703;1268;102085;-81
2023/05/29 06:14:35;;;;;;;10.40;3.30;;;;;;;15.44;64.22;100992.36;105690;1270;99086;-86
2023/05/29 06:17:22;;;;;;;5.90;2.80;;;;;;;15.59;63.97;100994.06;105752;1271;98918;-89
2023/05/29 06:20:11;;;;;;;7.10;2.60;;;;;;;15.72;63.07;100993.30;105427;1265;141045;-90
2023/05/29 06:23:11;;;;;;;8.40;3.10;;;;;;;15.86;62.95;100991.85;106269;1265;97793;-90
2023/05/29 06:25:57;;;;;;;5.20;2.40;;;;;;;16.02;62.74;100993.05;106302;1264;102093;-89
2023/05/29 06:28:43;;;;;;;3.60;2.40;;;;;;;16.16;61.97;100994.30;106090;1268;99822;-81
2023/05/29 06:31:28;;;;;;;4.50;2.20;;;;;;;16.31;61.86;100991.36;105761;1269;99440;-80
2023/05/29 06:34:14;;;;;;;10.10;2.50;;;;;;;16.47;62.12;100993.14;105768;1265;97909;-80
2023/05/29 06:36:59;;;;;;;4.60;2.20;;;;;;;16.61;61.69;100992.17;105545;1269;97897;-80
2023/05/29 06:39:46;;;;;;;3.50;1.70;;;;;;;16.73;60.96;100989.09;105682;1264;102599;-84
2023/05/29 06:42:32;;;;;;;6.70;2.20;;;;;;;16.86;60.78;100985.81;105754;1265;99063;-84
2023/05/29 06:45:18;;;;;;;2.00;1.80;;;;;;;16.98;59.98;100987.56;107879;1265;97746;-82
2023/05/29 06:48:03;;;;;;;5.60;2.00;;;;;;;17.10;59.07;100991.27;107534;1265;97906;-83
2023/05/29 06:50:48;;;;;;;4.80;1.60;;;;;;;17.21;58.36;100989.84;107860;1265;95886;-85
2023/05/29 06:53:57;;;;;;;6.30;1.90;;;;;;;17.34;57.84;100986.87;108073;1265;101322;-86
2023/05/29 06:56:43;;;;;;;5.30;1.80;;;;;;;17.45;56.80;100989.56;107973;1265;99068;-85
2023/05/29 06:59:28;;;;;;;13.50;2.00;;;;;;;17.53;55.73;100989.47;106946;1265;97992;-83
2023/05/29 07:02:13;;;;;;;7.90;2.00;;;;;;;17.65;55.67;100990.61;105658;1265;99300;-88
2023/05/29 07:04:59;;;;;;;9.10;2.00;;;;;;;17.75;54.67;100990.92;105816;1271;98041;-88
2023/05/29 07:07:45;;;;;;;8.80;2.40;;;;;;;17.84;54.52;100995.38;106306;1265;101469;-86
2023/05/29 07:10:31;;;;;;;3.70;1.80;;;;;;;17.97;55.17;100994.96;106343;1265;99104;-91
2023/05/29 07:13:17;;;;;;;3.90;1.70;;;;;;;18.10;54.79;100996.55;106223;1263;97832;-89
2023/05/29 07:16:03;;;;;;;10.10;1.50;;;;;;;18.20;54.08;100995.77;106925;1265;97874;-88
2023/05/29 07:18:52;;;;;;;5.80;1.60;;;;;;;18.31;53.88;100995.60;105847;1266;97828;-81
2023/05/29 07:21:37;;;;;;;5.90;1.90;;;;;;;18.41;53.08;100995.44;105721;1269;102043;-85
2023/05/29 07:24:23;;;;;;;4.40;1.30;;;;;;;18.50;51.50;100997.38;105633;1267;100447;-83
2023/05/29 07:27:09;;;;;;;2.70;1.40;;;;;;;18.55;50.56;101002.58;105800;1269;98718;-85
2023/05/29 07:29:55;;;;;;;5.80;1.20;;;;;;;18.63;51.04;101006.90;105797;1270;97981;-80
2023/05/29 07:32:40;;;;;;;6.70;1.70;;;;;;;18.67;49.76;101009.13;105716;1265;97956;-80
2023/05/29 07:35:27;;;;;;;3.90;1.60;;;;;;;18.70;49.30;101007.64;105683;1270;101383;-81
2023/05/29 07:38:14;;;;;;;5.10;1.50;;;;;;;18.77;49.95;101004.85;105997;1265;99264;-85
2023/05/29 07:41:00;;;;;;;4.30;1.30;;;;;;;18.88;49.79;101004.37;105892;1265;97932;-81
2023/05/29 07:43:55;;;;;;;4.10;1.70;;;;;;;18.97;48.75;101005.50;106026;1265;98016;-82
2023/05/29 07:46:40;;;;;;;3.30;1.40;;;;;;;19.05;48.31;101009.16;106158;1264;97905;-80
2023/05/29 07:49:44;;;;;;;3.30;1.80;;;;;;;19.12;48.24;101009.38;106037;1265;101400;-81
2023/05/29 07:52:30;;;;;;;4.30;1.90;;;;;;;19.19;48.54;101006.55;105380;1265;100213;-80
2023/05/29 07:55:15;;;;;;;4.80;1.40;;;;;;;19.25;47.95;101007.59;105998;1265;98404;-80
2023/05/29 07:58:02;;;;;;;2.60;1.30;;;;;;;19.32;48.15;101010.43;105943;1265;97887;-80
2023/05/29 08:00:49;;;;;;;3.70;1.60;;;;;;;19.38;48.11;101008.05;107048;1265;97923;-86
2023/05/29 08:03:35;;;;;;;2.40;1.30;;;;;;;19.44;47.69;101001.13;105676;1264;101332;-85
2023/05/29 08:06:23;;;;;;;4.70;1.40;;;;;;;19.51;47.04;100999.23;105654;1267;99114;-83
2023/05/29 08:09:10;;;;;;;3.00;1.50;;;;;;;19.58;46.49;101002.39;105531;1265;106390;-85
2023/05/29 08:11:55;;;;;;;3.60;1.30;;;;;;;19.61;46.49;101003.66;105484;1269;98050;-84
2023/05/29 08:14:41;;;;;;;13.80;1.70;;;;;;;19.65;46.37;100998.95;105483;1265;98032;-86
2023/05/29 08:17:27;;;;;;;8.90;1.60;;;;;;;19.71;47.57;100995.64;105361;1270;101373;-86
2023/05/29 08:20:13;;;;;;;3.20;1.60;;;;;;;19.79;46.99;100996.31;105691;1270;99763;-88
2023/05/29 08:22:59;;;;;;;2.70;1.30;;;;;;;19.85;46.14;101000.27;105473;1265;98001;-86
2023/05/29 08:25:45;;;;;;;4.50;1.70;;;;;;;19.90;45.71;101004.11;105593;1265;97982;-84
2023/05/29 08:28:31;;;;;;;7.30;1.40;;;;;;;19.94;45.83;101000.19;105564;1265;98101;-82
2023/05/29 08:31:17;;;;;;;2.70;1.50;;;;;;;20.00;45.48;101001.62;105658;1265;102511;-81
2023/05/29 08:34:03;;;;;;;6.70;1.30;;;;;;;20.05;45.57;101003.75;105859;1270;99126;-86
2023/05/29 08:36:48;;;;;;;6.00;1.70;;;;;;;20.14;46.67;100996.98;105764;1267;97910;-81
2023/05/29 08:39:33;;;;;;;5.00;1.50;;;;;;;20.27;46.58;100998.59;105595;1265;98006;-79
2023/05/29 08:42:32;;;;;;;6.30;1.50;;;;;;;20.39;46.49;100997.75;105601;1269;98430;-80
2023/05/29 08:45:19;;;;;;;6.00;1.40;;;;;;;20.51;46.16;100999.31;105753;1269;102607;-80
2023/05/29 08:48:06;;;;;;;5.10;1.70;;;;;;;20.57;45.15;100997.20;105843;1265;100777;-79
2023/05/29 08:50:54;;;;;;;6.20;1.70;;;;;;;20.57;44.38;100996.69;105623;1265;106349;-80
2023/05/29 08:53:40;;;;;;;3.70;1.80;;;;;;;20.58;44.78;100999.55;105787;1269;97803;-80
2023/05/29 08:56:27;;;;;;;4.20;1.60;;;;;;;20.64;44.70;100998.25;105324;1269;99646;-84
2023/05/29 08:59:14;;;;;;;4.90;1.70;;;;;;;20.70;44.70;100995.11;105687;1265;102612;-82
2023/05/29 09:01:59;;;;;;;4.90;2.10;;;;;;;20.75;44.21;100992.86;105979;1265;99075;-83
2023/05/29 09:04:45;;;;;;;5.60;1.60;;;;;;;20.83;44.65;100990.23;105816;1264;97958;-80
2023/05/29 09:07:30;;;;;;;5.30;1.70;;;;;;;20.91;44.31;100985.84;105837;1265;97857;-82
2023/05/29 09:10:17;;;;;;;13.40;2.20;;;;;;;20.95;43.97;100983.89;105793;1265;98451;-80
2023/05/29 09:13:03;;;;;;;11.60;2.40;;;;;;;21.00;43.58;100983.50;105781;1265;102610;-81
2023/05/29 09:15:49;;;;;;;6.70;1.80;;;;;;;21.04;42.94;100982.36;105807;1265;100535;-81
2023/05/29 09:18:34;;;;;;;5.10;1.40;;;;;;;21.10;42.54;100979.52;105825;1265;97937;-81
2023/05/29 09:21:29;;;;;;;4.50;1.60;;;;;;;21.14;42.60;100978.98;105880;1264;98066;-80
2023/05/29 09:24:14;;;;;;;3.60;1.50;;;;;;;21.24;42.92;100978.84;106160;1265;98406;-82
2023/05/29 09:27:01;;;;;;;4.90;1.50;;;;;;;21.32;42.97;100976.02;105883;1270;103079;-81
2023/05/29 09:29:46;;;;;;;6.00;1.60;;;;;;;21.38;42.61;100976.51;105901;1269;99125;-81
2023/05/29 09:32:33;;;;;;;8.90;2.00;;;;;;;21.45;42.17;100974.54;105827;1269;98039;-80
2023/05/29 09:35:20;;;;;;;4.90;1.70;;;;;;;21.51;42.80;100977.04;105771;1265;96042;-81
2023/05/29 09:38:07;;;;;;;3.90;1.60;;;;;;;21.58;41.90;100977.18;105869;1268;99688;-81
2023/05/29 09:40:55;;;;;;;2.90;1.50;;;;;;;21.57;41.01;100976.80;105820;1265;102421;-79
2023/05/29 09:43:43;;;;;;;6.50;2.30;;;;;;;21.56;40.67;100978.21;105810;1269;99602;-81
2023/05/29 09:46:28;;;;;;;7.50;1.60;;;;;;;21.56;40.35;100980.06;106170;1265;98318;-82
2023/05/29 09:49:14;;;;;;;6.00;1.50;;;;;;;21.52;39.81;100979.23;105857;1265;97905;-81
2023/05/29 09:52:00;;;;;;;5.30;1.80;;;;;;;21.52;40.11;100979.12;105895;1265;97841;-81
2023/05/29 09:54:45;;;;;;;7.20;1.50;;;;;;;21.53;40.00;100974.44;105893;1267;101529;-82
2023/05/29 09:57:31;;;;;;;7.00;2.20;;;;;;;21.57;40.81;100959.62;105762;1265;99728;-80
2023/05/29 10:00:17;;;;;;;5.40;1.60;;;;;;;21.62;40.84;100965.52;105844;1264;98464;-81
2023/05/29 10:03:03;;;;;;;6.70;1.60;;;;;;;21.69;41.12;100966.40;105878;1268;97777;-81
2023/05/29 10:05:50;;;;;;;6.90;1.70;;;;;;;21.83;41.55;100967.15;106076;1267;98222;-81
2023/05/29 10:08:39;;;;;;;2.70;1.80;;;;;;;21.93;41.39;100965.13;105770;1267;102620;-81
2023/05/29 10:11:27;;;;;;;5.10;2.10;;;;;;;22.01;40.70;100968.52;105750;1268;100465;-82
2023/05/29 10:14:22;;;;;;;3.30;1.60;;;;;;;22.00;39.89;100967.20;105742;1271;99038;-81
2023/05/29 10:17:13;;;;;;;4.30;1.80;;;;;;;21.99;39.76;100963.85;105777;1265;98060;-80
2023/05/29 10:20:02;;;;;;;3.00;1.20;;;;;;;21.98;39.02;100962.09;105894;1265;98061;-81
2023/05/29 10:22:51;;;;;;;4.40;1.60;;;;;;;21.95;39.26;100959.16;106523;1264;101364;-82
2023/05/29 10:25:38;;;;;;;6.70;1.60;;;;;;;21.97;39.44;100953.30;105665;1267;99170;-82
2023/05/29 10:28:24;;;;;;;4.30;1.50;;;;;;;22.04;39.65;100953.05;105700;1265;98691;-81
2023/05/29 10:31:19;;;;;;;1.90;1.50;;;;;;;22.21;40.85;100951.74;105748;1269;98005;-80
2023/05/29 10:34:23;;;;;;;4.80;1.30;;;;;;;22.47;40.95;100952.75;105750;1266;97969;-81
2023/05/29 10:37:16;;;;;;;5.70;2.00;;;;;;;22.67;40.15;100952.13;105685;1265;101495;-82
2023/05/29 10:40:16;;;;;;;4.60;1.60;;;;;;;22.79;39.71;100954.00;105780;1270;100568;-81
2023/05/29 10:43:02;;;;;;;3.70;2.00;;;;;;;22.75;39.25;100953.91;105641;1265;98725;-80
2023/05/29 10:45:49;;;;;;;2.60;1.30;;;;;;;22.72;39.15;100949.77;105728;1269;98141;-80
2023/05/29 10:48:40;;;;;;;2.20;1.50;;;;;;;22.64;38.99;100951.27;105785;1265;99240;-81
2023/05/29 10:51:28;;;;;;;3.20;1.50;;;;;;;22.45;38.32;100951.70;105737;1265;101333;-82
2023/05/29 10:54:16;;;;;;;3.90;1.50;;;;;;;22.26;38.45;100952.02;105855;1265;100397;-82
2023/05/29 10:57:02;;;;;;;1.80;1.60;;;;;;;22.22;39.44;100955.96;105788;1265;98456;-81
2023/05/29 10:59:57;;;;;;;5.70;1.50;;;;;;;22.25;38.66;100955.11;105819;1265;97981;-82
2023/05/29 11:02:43;;;;;;;7.80;2.10;;;;;;;22.25;39.19;100950.16;105748;1270;98071;-80
2023/05/29 11:05:28;;;;;;;4.40;1.80;;;;;;;22.28;38.46;100950.14;105814;1265;102745;-81
2023/05/29 11:08:14;;;;;;;3.20;1.80;;;;;;;22.22;37.91;100948.48;105765;1265;99136;-81
2023/05/29 11:11:00;;;;;;;6.30;2.10;;;;;;;22.14;37.66;100943.25;105687;1265;98389;-82
2023/05/29 11:13:53;;;;;;;3.40;1.50;;;;;;;22.20;39.28;100942.30;105763;1265;98042;-80
2023/05/29 11:16:39;;;;;;;5.50;1.70;;;;;;;22.37;39.15;100934.73;105744;1269;98506;-82
2023/05/29 11:19:26;;;;;;;5.80;1.90;;;;;;;22.52;38.28;100934.96;105778;1266;101372;-80
2023/05/29 11:22:23;;;;;;;9.20;1.90;;;;;;;22.66;38.14;100935.95;105819;1265;99678;-81
2023/05/29 11:25:09;;;;;;;2.80;1.80;;;;;;;22.83;37.83;100936.67;105837;1265;98023;-82
2023/05/29 11:27:55;;;;;;;7.20;2.20;;;;;;;22.99;37.48;100942.00;105792;1265;97969;-82
2023/05/29 11:30:46;;;;;;;4.90;2.10;;;;;;;22.94;37.21;100943.06;105788;1269;98730;-81
2023/05/29 11:33:39;;;;;;;6.10;2.00;;;;;;;22.76;37.12;100944.41;105911;1265;101930;-81
2023/05/29 11:36:27;;;;;;;4.10;1.90;;;;;;;22.56;36.88;100937.31;105870;1265;99147;-82
2023/05/29 11:39:13;;;;;;;4.50;2.20;;;;;;;22.39;36.60;100931.54;106703;1269;97864;-81
2023/05/29 11:42:00;;;;;;;5.40;1.90;;;;;;;22.34;37.05;100929.58;107827;1265;98076;-82
2023/05/29 11:44:46;;;;;;;5.00;1.90;;;;;;;22.42;36.90;100927.05;105935;1265;96708;-81
2023/05/29 11:47:31;;;;;;;8.00;1.50;;;;;;;22.45;37.41;100927.46;105804;1269;101347;-81
2023/05/29 11:50:24;;;;;;;5.40;1.60;;;;;;;22.47;37.61;100925.84;105769;1269;99091;-81
2023/05/29 11:53:11;;;;;;;5.00;1.90;;;;;;;22.47;37.32;100923.38;107024;1265;97767;-81
2023/05/29 11:56:07;;;;;;;4.60;2.10;;;;;;;22.51;37.00;100919.94;105870;1266;98064;-82
2023/05/29 11:58:57;;;;;;;4.20;2.00;;;;;;;22.62;37.43;100921.38;105884;1268;98413;-81
2023/05/29 12:01:43;;;;;;;4.80;1.60;;;;;;;22.77;37.45;100915.80;105138;1269;102721;-80
2023/05/29 12:04:29;;;;;;;6.40;1.90;;;;;;;22.92;37.02;100916.38;106121;1265;100559;-81
2023/05/29 12:07:18;;;;;;;6.00;2.20;;;;;;;23.05;37.09;100910.73;106317;1265;97952;-80
2023/05/29 12:10:15;;;;;;;8.60;2.20;;;;;;;23.16;36.77;100909.02;105970;1265;97929;-85
2023/05/29 12:13:01;;;;;;;5.30;2.20;;;;;;;23.29;36.97;100908.41;105891;1271;97907;-87
2023/05/29 12:15:49;;;;;;;4.20;1.80;;;;;;;23.45;37.09;100906.80;105874;1267;101908;-87
2023/05/29 12:18:36;;;;;;;3.40;2.00;;;;;;;23.53;36.38;100904.11;105895;1271;100359;-90
2023/05/29 12:21:23;;;;;;;4.90;2.10;;;;;;;23.55;36.39;100899.91;105680;1273;98010;-89
2023/05/29 12:24:09;;;;;;;5.50;2.00;;;;;;;23.41;35.36;100900.36;105797;1265;97962;-83
2023/05/29 12:26:56;;;;;;;3.60;2.00;;;;;;;23.26;35.65;100902.59;106288;1268;97759;-90
2023/05/29 12:29:42;;;;;;;5.60;2.10;;;;;;;23.26;35.44;100899.10;105792;1268;103118;-85
2023/05/29 12:32:36;;;;;;;5.50;1.90;;;;;;;23.30;34.66;100898.74;105922;1267;100358;-81
2023/05/29 12:35:22;;;;;;;4.10;1.80;;;;;;;23.44;35.78;100899.03;105741;1269;99025;-83
2023/05/29 12:38:08;;;;;;;2.90;2.30;;;;;;;23.57;36.56;100896.86;105734;1270;97929;-83
2023/05/29 12:40:54;;;;;;;3.50;2.00;;;;;;;23.60;36.66;100894.42;105595;1270;98389;-84
2023/05/29 12:43:40;;;;;;;4.50;2.30;;;;;;;23.60;35.78;100895.57;105439;1264;102405;-85
2023/05/29 12:46:26;;;;;;;9.00;2.00;;;;;;;23.60;35.81;100898.52;105583;1270;99292;-85